sensor_id;sensor_type;location;lat;lon;timestamp;P1;durP1;ratioP1;P2;durP2;ratioP2
261;SDS011;114;48.260;10.988;2023-05-16T00:00:18;10.30;;;7.97;;
261;SDS011;114;48.260;10.988;2023-05-16T00:02:44;9.17;;;8.30;;
261;SDS011;114;48.260;10.988;2023-05-16T00:05:10;10.37;;;9.13;;
261;SDS011;114;48.260;10.988;2023-05-16T00:07:40;17.47;;;9.17;;
261;SDS011;114;48.260;10.988;2023-05-16T00:10:07;9.07;;;8.23;;
261;SDS011;114;48.260;10.988;2023-05-16T00:12:33;9.30;;;8.40;;
261;SDS011;114;48.260;10.988;2023-05-16T00:15:00;11.43;;;8.40;;
261;SDS011;114;48.260;10.988;2023-05-16T00:17:27;10.00;;;9.17;;
261;SDS011;114;48.260;10.988;2023-05-16T00:19:53;12.30;;;9.00;;
261;SDS011;114;48.260;10.988;2023-05-16T00:22:22;9.97;;;9.13;;
261;SDS011;114;48.260;10.988;2023-05-16T00:24:49;10.63;;;8.73;;
261;SDS011;114;48.260;10.988;2023-05-16T00:27:15;9.97;;;9.07;;
261;SDS011;114;48.260;10.988;2023-05-16T00:29:40;9.10;;;8.30;;
261;SDS011;114;48.260;10.988;2023-05-16T00:32:06;8.90;;;8.10;;
261;SDS011;114;48.260;10.988;2023-05-16T00:34:33;9.77;;;8.73;;
261;SDS011;114;48.260;10.988;2023-05-16T00:36:59;9.23;;;8.33;;
261;SDS011;114;48.260;10.988;2023-05-16T00:39:25;12.10;;;10.90;;
261;SDS011;114;48.260;10.988;2023-05-16T00:41:50;9.27;;;8.43;;
261;SDS011;114;48.260;10.988;2023-05-16T00:44:16;10.80;;;9.70;;
261;SDS011;114;48.260;10.988;2023-05-16T00:46:42;9.60;;;8.80;;
261;SDS011;114;48.260;10.988;2023-05-16T00:49:08;8.73;;;7.93;;
261;SDS011;114;48.260;10.988;2023-05-16T00:51:35;10.07;;;9.03;;
261;SDS011;114;48.260;10.988;2023-05-16T00:54:03;11.60;;;9.00;;
261;SDS011;114;48.260;10.988;2023-05-16T00:56:30;9.30;;;8.40;;
261;SDS011;114;48.260;10.988;2023-05-16T00:58:56;9.80;;;8.80;;
261;SDS011;114;48.260;10.988;2023-05-16T01:01:22;10.00;;;9.10;;
261;SDS011;114;48.260;10.988;2023-05-16T01:03:51;10.57;;;9.67;;
261;SDS011;114;48.260;10.988;2023-05-16T01:06:17;10.67;;;9.10;;
261;SDS011;114;48.260;10.988;2023-05-16T01:08:43;15.37;;;9.23;;
261;SDS011;114;48.260;10.988;2023-05-16T01:11:16;10.40;;;9.40;;
261;SDS011;114;48.260;10.988;2023-05-16T01:16:41;12.10;;;10.00;;
261;SDS011;114;48.260;10.988;2023-05-16T01:25:21;9.60;;;8.80;;
261;SDS011;114;48.260;10.988;2023-05-16T01:28:11;11.47;;;10.30;;
261;SDS011;114;48.260;10.988;2023-05-16T01:30:40;10.90;;;8.30;;
261;SDS011;114;48.260;10.988;2023-05-16T01:33:06;9.93;;;9.03;;
261;SDS011;114;48.260;10.988;2023-05-16T01:35:32;9.50;;;7.63;;
261;SDS011;114;48.260;10.988;2023-05-16T01:43:29;19.93;;;10.10;;
261;SDS011;114;48.260;10.988;2023-05-16T01:46:03;16.10;;;9.73;;
261;SDS011;114;48.260;10.988;2023-05-16T01:48:38;10.80;;;9.70;;
261;SDS011;114;48.260;10.988;2023-05-16T01:51:13;12.17;;;9.83;;
261;SDS011;114;48.260;10.988;2023-05-16T01:53:39;11.10;;;10.10;;
261;SDS011;114;48.260;10.988;2023-05-16T01:56:08;10.80;;;9.80;;
261;SDS011;114;48.260;10.988;2023-05-16T01:58:38;12.73;;;9.70;;
261;SDS011;114;48.260;10.988;2023-05-16T02:01:05;9.40;;;8.17;;
261;SDS011;114;48.260;10.988;2023-05-16T02:03:31;10.00;;;9.00;;
261;SDS011;114;48.260;10.988;2023-05-16T02:05:57;11.00;;;8.63;;
261;SDS011;114;48.260;10.988;2023-05-16T02:08:23;13.93;;;10.33;;
261;SDS011;114;48.260;10.988;2023-05-16T02:10:53;17.00;;;10.30;;
261;SDS011;114;48.260;10.988;2023-05-16T02:13:18;12.70;;;10.77;;
261;SDS011;114;48.260;10.988;2023-05-16T02:15:44;13.17;;;9.60;;
261;SDS011;114;48.260;10.988;2023-05-16T02:18:10;11.67;;;10.47;;
261;SDS011;114;48.260;10.988;2023-05-16T02:20:36;12.40;;;9.73;;
261;SDS011;114;48.260;10.988;2023-05-16T02:23:02;9.73;;;8.83;;
261;SDS011;114;48.260;10.988;2023-05-16T02:25:28;8.67;;;7.93;;
261;SDS011;114;48.260;10.988;2023-05-16T02:27:54;8.10;;;7.33;;
261;SDS011;114;48.260;10.988;2023-05-16T02:30:20;8.37;;;7.60;;
261;SDS011;114;48.260;10.988;2023-05-16T02:32:46;9.03;;;8.17;;
261;SDS011;114;48.260;10.988;2023-05-16T02:35:13;9.77;;;8.83;;
261;SDS011;114;48.260;10.988;2023-05-16T02:37:39;14.13;;;7.97;;
261;SDS011;114;48.260;10.988;2023-05-16T02:40:05;10.60;;;8.57;;
261;SDS011;114;48.260;10.988;2023-05-16T02:42:32;7.80;;;7.20;;
261;SDS011;114;48.260;10.988;2023-05-16T02:44:58;8.50;;;7.77;;
261;SDS011;114;48.260;10.988;2023-05-16T02:47:24;8.70;;;8.00;;
261;SDS011;114;48.260;10.988;2023-05-16T02:49:50;9.13;;;8.03;;
261;SDS011;114;48.260;10.988;2023-05-16T02:52:18;10.07;;;8.73;;
261;SDS011;114;48.260;10.988;2023-05-16T02:54:44;9.60;;;8.80;;
261;SDS011;114;48.260;10.988;2023-05-16T02:57:10;9.97;;;9.07;;
261;SDS011;114;48.260;10.988;2023-05-16T02:59:36;9.50;;;8.70;;
261;SDS011;114;48.260;10.988;2023-05-16T03:02:02;10.03;;;9.13;;
261;SDS011;114;48.260;10.988;2023-05-16T03:04:28;9.60;;;8.57;;
261;SDS011;114;48.260;10.988;2023-05-16T03:06:54;14.87;;;9.33;;
261;SDS011;114;48.260;10.988;2023-05-16T03:09:20;10.00;;;8.97;;
261;SDS011;114;48.260;10.988;2023-05-16T03:11:46;13.37;;;10.67;;
261;SDS011;114;48.260;10.988;2023-05-16T03:14:12;11.67;;;10.47;;
261;SDS011;114;48.260;10.988;2023-05-16T03:16:38;11.70;;;10.60;;
261;SDS011;114;48.260;10.988;2023-05-16T03:19:05;12.83;;;11.40;;
261;SDS011;114;48.260;10.988;2023-05-16T03:21:31;12.10;;;10.97;;
261;SDS011;114;48.260;10.988;2023-05-16T03:23:57;17.97;;;11.47;;
261;SDS011;114;48.260;10.988;2023-05-16T03:26:26;11.30;;;10.30;;
261;SDS011;114;48.260;10.988;2023-05-16T03:28:51;14.20;;;11.70;;
261;SDS011;114;48.260;10.988;2023-05-16T03:31:17;11.90;;;10.70;;
261;SDS011;114;48.260;10.988;2023-05-16T03:33:43;11.90;;;9.70;;
261;SDS011;114;48.260;10.988;2023-05-16T03:36:09;12.67;;;9.80;;
261;SDS011;114;48.260;10.988;2023-05-16T03:38:35;12.70;;;9.87;;
261;SDS011;114;48.260;10.988;2023-05-16T03:41:01;10.73;;;9.83;;
261;SDS011;114;48.260;10.988;2023-05-16T03:43:27;11.23;;;10.10;;
261;SDS011;114;48.260;10.988;2023-05-16T03:45:53;10.33;;;9.37;;
261;SDS011;114;48.260;10.988;2023-05-16T03:48:18;10.20;;;9.00;;
261;SDS011;114;48.260;10.988;2023-05-16T03:50:44;13.20;;;9.40;;
261;SDS011;114;48.260;10.988;2023-05-16T03:53:10;32.33;;;11.00;;
261;SDS011;114;48.260;10.988;2023-05-16T03:55:36;14.63;;;8.90;;
261;SDS011;114;48.260;10.988;2023-05-16T03:58:02;10.50;;;9.60;;
261;SDS011;114;48.260;10.988;2023-05-16T04:00:27;12.47;;;9.13;;
261;SDS011;114;48.260;10.988;2023-05-16T04:02:53;9.53;;;8.73;;
261;SDS011;114;48.260;10.988;2023-05-16T04:05:19;11.10;;;8.57;;
261;SDS011;114;48.260;10.988;2023-05-16T04:07:44;8.97;;;8.33;;
261;SDS011;114;48.260;10.988;2023-05-16T04:10:10;12.33;;;9.20;;
261;SDS011;114;48.260;10.988;2023-05-16T04:12:36;9.40;;;8.50;;
261;SDS011;114;48.260;10.988;2023-05-16T04:15:02;9.63;;;8.73;;
261;SDS011;114;48.260;10.988;2023-05-16T04:17:29;9.97;;;8.20;;
261;SDS011;114;48.260;10.988;2023-05-16T04:19:55;9.10;;;8.37;;
261;SDS011;114;48.260;10.988;2023-05-16T04:22:21;11.47;;;9.20;;
261;SDS011;114;48.260;10.988;2023-05-16T04:24:49;9.17;;;8.37;;
261;SDS011;114;48.260;10.988;2023-05-16T04:27:15;11.30;;;9.83;;
261;SDS011;114;48.260;10.988;2023-05-16T04:29:41;11.37;;;10.27;;
261;SDS011;114;48.260;10.988;2023-05-16T04:32:06;11.03;;;10.03;;
261;SDS011;114;48.260;10.988;2023-05-16T04:34:33;10.93;;;9.50;;
261;SDS011;114;48.260;10.988;2023-05-16T04:37:01;9.70;;;8.73;;
261;SDS011;114;48.260;10.988;2023-05-16T04:39:29;9.97;;;8.97;;
261;SDS011;114;48.260;10.988;2023-05-16T04:41:55;10.60;;;9.27;;
261;SDS011;114;48.260;10.988;2023-05-16T04:44:23;14.50;;;10.00;;
261;SDS011;114;48.260;10.988;2023-05-16T04:46:51;11.23;;;9.63;;
261;SDS011;114;48.260;10.988;2023-05-16T04:49:18;10.40;;;9.40;;
261;SDS011;114;48.260;10.988;2023-05-16T04:51:45;11.50;;;10.40;;
261;SDS011;114;48.260;10.988;2023-05-16T04:54:12;13.23;;;9.90;;
261;SDS011;114;48.260;10.988;2023-05-16T04:56:38;12.27;;;10.33;;
261;SDS011;114;48.260;10.988;2023-05-16T04:59:03;11.37;;;9.80;;
261;SDS011;114;48.260;10.988;2023-05-16T05:01:29;9.83;;;9.03;;
261;SDS011;114;48.260;10.988;2023-05-16T05:03:55;9.67;;;8.77;;
261;SDS011;114;48.260;10.988;2023-05-16T05:06:21;10.00;;;9.10;;
261;SDS011;114;48.260;10.988;2023-05-16T05:08:47;10.27;;;9.37;;
261;SDS011;114;48.260;10.988;2023-05-16T05:11:13;11.17;;;9.93;;
261;SDS011;114;48.260;10.988;2023-05-16T05:13:39;10.70;;;9.60;;
261;SDS011;114;48.260;10.988;2023-05-16T05:16:05;10.20;;;9.30;;
261;SDS011;114;48.260;10.988;2023-05-16T05:18:31;10.10;;;9.13;;
261;SDS011;114;48.260;10.988;2023-05-16T05:20:57;10.40;;;9.40;;
261;SDS011;114;48.260;10.988;2023-05-16T05:23:23;12.33;;;9.27;;
261;SDS011;114;48.260;10.988;2023-05-16T05:25:48;10.13;;;9.13;;
261;SDS011;114;48.260;10.988;2023-05-16T05:28:14;11.43;;;10.17;;
261;SDS011;114;48.260;10.988;2023-05-16T05:30:40;10.37;;;9.20;;
261;SDS011;114;48.260;10.988;2023-05-16T05:33:06;10.97;;;9.87;;
261;SDS011;114;48.260;10.988;2023-05-16T05:35:32;12.47;;;10.33;;
261;SDS011;114;48.260;10.988;2023-05-16T05:37:57;11.90;;;8.50;;
261;SDS011;114;48.260;10.988;2023-05-16T05:40:23;10.90;;;9.90;;
261;SDS011;114;48.260;10.988;2023-05-16T05:42:49;10.73;;;9.57;;
261;SDS011;114;48.260;10.988;2023-05-16T05:45:15;12.67;;;10.23;;
261;SDS011;114;48.260;10.988;2023-05-16T05:47:41;14.13;;;10.13;;
261;SDS011;114;48.260;10.988;2023-05-16T05:50:07;17.77;;;10.50;;
261;SDS011;114;48.260;10.988;2023-05-16T05:52:35;13.30;;;10.23;;
261;SDS011;114;48.260;10.988;2023-05-16T05:55:01;12.67;;;9.80;;
261;SDS011;114;48.260;10.988;2023-05-16T05:57:27;12.73;;;9.83;;
261;SDS011;114;48.260;10.988;2023-05-16T05:59:53;12.17;;;10.80;;
261;SDS011;114;48.260;10.988;2023-05-16T06:02:19;11.77;;;10.67;;
261;SDS011;114;48.260;10.988;2023-05-16T06:04:45;14.70;;;12.57;;
261;SDS011;114;48.260;10.988;2023-05-16T06:07:11;13.60;;;11.90;;
261;SDS011;114;48.260;10.988;2023-05-16T06:09:37;12.43;;;10.60;;
261;SDS011;114;48.260;10.988;2023-05-16T06:12:03;23.40;;;12.57;;
261;SDS011;114;48.260;10.988;2023-05-16T06:14:29;12.30;;;11.13;;
261;SDS011;114;48.260;10.988;2023-05-16T06:16:54;13.67;;;11.00;;
261;SDS011;114;48.260;10.988;2023-05-16T06:19:20;19.30;;;12.03;;
261;SDS011;114;48.260;10.988;2023-05-16T06:21:46;13.37;;;12.00;;
261;SDS011;114;48.260;10.988;2023-05-16T06:24:11;13.53;;;12.23;;
261;SDS011;114;48.260;10.988;2023-05-16T06:26:37;13.93;;;11.20;;
261;SDS011;114;48.260;10.988;2023-05-16T06:29:03;15.50;;;11.93;;
261;SDS011;114;48.260;10.988;2023-05-16T06:31:28;13.90;;;12.07;;
261;SDS011;114;48.260;10.988;2023-05-16T06:33:55;16.07;;;12.40;;
261;SDS011;114;48.260;10.988;2023-05-16T06:36:20;12.13;;;10.77;;
261;SDS011;114;48.260;10.988;2023-05-16T06:38:46;12.83;;;11.30;;
261;SDS011;114;48.260;10.988;2023-05-16T06:41:12;12.73;;;11.40;;
261;SDS011;114;48.260;10.988;2023-05-16T06:43:38;12.80;;;11.50;;
261;SDS011;114;48.260;10.988;2023-05-16T06:46:04;14.80;;;12.20;;
261;SDS011;114;48.260;10.988;2023-05-16T06:48:30;13.30;;;11.00;;
261;SDS011;114;48.260;10.988;2023-05-16T06:50:55;13.63;;;12.33;;
261;SDS011;114;48.260;10.988;2023-05-16T06:53:21;14.67;;;13.10;;
261;SDS011;114;48.260;10.988;2023-05-16T06:55:47;13.47;;;12.07;;
261;SDS011;114;48.260;10.988;2023-05-16T06:58:13;15.77;;;12.60;;
261;SDS011;114;48.260;10.988;2023-05-16T07:00:39;17.43;;;13.57;;
261;SDS011;114;48.260;10.988;2023-05-16T07:03:05;14.03;;;12.57;;
261;SDS011;114;48.260;10.988;2023-05-16T07:05:31;18.37;;;13.43;;
261;SDS011;114;48.260;10.988;2023-05-16T07:07:57;14.53;;;13.00;;
261;SDS011;114;48.260;10.988;2023-05-16T07:10:23;14.40;;;12.93;;
261;SDS011;114;48.260;10.988;2023-05-16T07:12:48;14.37;;;12.90;;
261;SDS011;114;48.260;10.988;2023-05-16T07:15:14;12.93;;;11.73;;
261;SDS011;114;48.260;10.988;2023-05-16T07:17:40;14.40;;;12.40;;
261;SDS011;114;48.260;10.988;2023-05-16T07:20:06;14.50;;;13.00;;
261;SDS011;114;48.260;10.988;2023-05-16T07:22:37;14.13;;;12.63;;
261;SDS011;114;48.260;10.988;2023-05-16T07:25:03;14.33;;;12.93;;
261;SDS011;114;48.260;10.988;2023-05-16T07:27:29;18.80;;;14.20;;
261;SDS011;114;48.260;10.988;2023-05-16T07:29:56;13.80;;;12.30;;
261;SDS011;114;48.260;10.988;2023-05-16T07:32:21;14.23;;;12.83;;
261;SDS011;114;48.260;10.988;2023-05-16T07:34:47;15.87;;;12.40;;
261;SDS011;114;48.260;10.988;2023-05-16T07:37:13;15.33;;;12.33;;
261;SDS011;114;48.260;10.988;2023-05-16T07:39:40;17.33;;;13.00;;
261;SDS011;114;48.260;10.988;2023-05-16T07:42:06;13.83;;;12.23;;
261;SDS011;114;48.260;10.988;2023-05-16T07:44:32;13.13;;;12.00;;
261;SDS011;114;48.260;10.988;2023-05-16T07:46:58;13.73;;;12.37;;
261;SDS011;114;48.260;10.988;2023-05-16T07:49:24;14.13;;;12.70;;
261;SDS011;114;48.260;10.988;2023-05-16T07:51:50;14.97;;;12.53;;
261;SDS011;114;48.260;10.988;2023-05-16T07:54:16;13.50;;;12.10;;
261;SDS011;114;48.260;10.988;2023-05-16T07:56:41;16.37;;;11.73;;
261;SDS011;114;48.260;10.988;2023-05-16T07:59:07;12.90;;;11.70;;
261;SDS011;114;48.260;10.988;2023-05-16T08:01:33;14.27;;;11.90;;
261;SDS011;114;48.260;10.988;2023-05-16T08:03:59;12.47;;;11.37;;
261;SDS011;114;48.260;10.988;2023-05-16T08:06:25;11.63;;;10.47;;
261;SDS011;114;48.260;10.988;2023-05-16T08:08:50;12.97;;;10.50;;
261;SDS011;114;48.260;10.988;2023-05-16T08:11:17;11.87;;;10.77;;
261;SDS011;114;48.260;10.988;2023-05-16T08:13:44;12.57;;;11.27;;
261;SDS011;114;48.260;10.988;2023-05-16T08:16:09;12.10;;;10.93;;
261;SDS011;114;48.260;10.988;2023-05-16T08:18:35;11.03;;;10.03;;
261;SDS011;114;48.260;10.988;2023-05-16T08:21:01;12.10;;;10.90;;
261;SDS011;114;48.260;10.988;2023-05-16T08:23:27;12.30;;;11.03;;
261;SDS011;114;48.260;10.988;2023-05-16T08:25:53;10.67;;;9.60;;
261;SDS011;114;48.260;10.988;2023-05-16T08:28:18;10.93;;;9.70;;
261;SDS011;114;48.260;10.988;2023-05-16T08:30:44;11.10;;;10.10;;
261;SDS011;114;48.260;10.988;2023-05-16T08:33:10;10.07;;;9.17;;
261;SDS011;114;48.260;10.988;2023-05-16T08:35:36;12.53;;;10.00;;
261;SDS011;114;48.260;10.988;2023-05-16T08:38:01;12.00;;;10.67;;
261;SDS011;114;48.260;10.988;2023-05-16T08:40:27;10.73;;;9.80;;
261;SDS011;114;48.260;10.988;2023-05-16T08:42:53;10.50;;;9.50;;
261;SDS011;114;48.260;10.988;2023-05-16T08:45:20;12.33;;;9.97;;
261;SDS011;114;48.260;10.988;2023-05-16T08:47:47;10.43;;;9.27;;
261;SDS011;114;48.260;10.988;2023-05-16T08:50:15;10.53;;;9.50;;
261;SDS011;114;48.260;10.988;2023-05-16T08:52:41;11.07;;;10.07;;
261;SDS011;114;48.260;10.988;2023-05-16T08:55:08;10.23;;;9.23;;
261;SDS011;114;48.260;10.988;2023-05-16T08:57:35;14.43;;;9.60;;
261;SDS011;114;48.260;10.988;2023-05-16T09:00:02;10.40;;;9.33;;
261;SDS011;114;48.260;10.988;2023-05-16T09:02:36;10.13;;;9.23;;
261;SDS011;114;48.260;10.988;2023-05-16T09:05:03;10.57;;;9.67;;
261;SDS011;114;48.260;10.988;2023-05-16T09:07:32;10.87;;;9.80;;
261;SDS011;114;48.260;10.988;2023-05-16T09:09:58;11.13;;;9.93;;
261;SDS011;114;48.260;10.988;2023-05-16T09:12:23;10.97;;;9.93;;
261;SDS011;114;48.260;10.988;2023-05-16T09:14:49;9.53;;;8.60;;
261;SDS011;114;48.260;10.988;2023-05-16T09:17:16;14.07;;;9.90;;
261;SDS011;114;48.260;10.988;2023-05-16T09:19:42;10.33;;;9.30;;
261;SDS011;114;48.260;10.988;2023-05-16T09:22:13;10.53;;;9.53;;
261;SDS011;114;48.260;10.988;2023-05-16T09:24:40;14.53;;;9.87;;
261;SDS011;114;48.260;10.988;2023-05-16T09:27:10;10.27;;;9.43;;
261;SDS011;114;48.260;10.988;2023-05-16T09:29:40;9.63;;;8.73;;
261;SDS011;114;48.260;10.988;2023-05-16T09:32:13;16.40;;;9.93;;
261;SDS011;114;48.260;10.988;2023-05-16T09:34:44;9.57;;;8.67;;
261;SDS011;114;48.260;10.988;2023-05-16T09:37:13;9.97;;;9.17;;
261;SDS011;114;48.260;10.988;2023-05-16T09:39:45;10.57;;;9.57;;
261;SDS011;114;48.260;10.988;2023-05-16T09:42:13;9.57;;;8.63;;
261;SDS011;114;48.260;10.988;2023-05-16T09:44:40;11.70;;;10.10;;
261;SDS011;114;48.260;10.988;2023-05-16T09:47:09;10.37;;;9.37;;
261;SDS011;114;48.260;10.988;2023-05-16T09:49:35;12.50;;;9.20;;
261;SDS011;114;48.260;10.988;2023-05-16T09:52:02;12.23;;;9.50;;
261;SDS011;114;48.260;10.988;2023-05-16T09:54:29;10.50;;;9.50;;
261;SDS011;114;48.260;10.988;2023-05-16T09:56:56;13.13;;;10.80;;
261;SDS011;114;48.260;10.988;2023-05-16T09:59:22;14.33;;;10.37;;
261;SDS011;114;48.260;10.988;2023-05-16T10:01:48;9.30;;;8.43;;
261;SDS011;114;48.260;10.988;2023-05-16T10:04:17;12.13;;;9.90;;
261;SDS011;114;48.260;10.988;2023-05-16T10:06:43;12.63;;;10.90;;
261;SDS011;114;48.260;10.988;2023-05-16T10:09:10;11.97;;;9.77;;
261;SDS011;114;48.260;10.988;2023-05-16T10:11:39;9.87;;;8.97;;
261;SDS011;114;48.260;10.988;2023-05-16T10:14:06;9.33;;;8.50;;
261;SDS011;114;48.260;10.988;2023-05-16T10:16:34;10.40;;;9.60;;
261;SDS011;114;48.260;10.988;2023-05-16T10:19:01;13.03;;;10.77;;
261;SDS011;114;48.260;10.988;2023-05-16T10:21:28;10.50;;;9.60;;
261;SDS011;114;48.260;10.988;2023-05-16T10:23:55;11.83;;;10.63;;
261;SDS011;114;48.260;10.988;2023-05-16T10:26:24;19.13;;;10.37;;
261;SDS011;114;48.260;10.988;2023-05-16T10:28:50;13.67;;;11.00;;
261;SDS011;114;48.260;10.988;2023-05-16T10:31:17;11.07;;;9.97;;
261;SDS011;114;48.260;10.988;2023-05-16T10:33:44;11.40;;;10.20;;
261;SDS011;114;48.260;10.988;2023-05-16T10:36:11;10.20;;;9.23;;
261;SDS011;114;48.260;10.988;2023-05-16T10:38:38;12.10;;;10.90;;
261;SDS011;114;48.260;10.988;2023-05-16T10:41:05;13.10;;;11.93;;
261;SDS011;114;48.260;10.988;2023-05-16T10:43:32;12.20;;;10.43;;
261;SDS011;114;48.260;10.988;2023-05-16T10:46:01;11.90;;;10.90;;
261;SDS011;114;48.260;10.988;2023-05-16T10:48:35;12.20;;;11.10;;
261;SDS011;114;48.260;10.988;2023-05-16T10:51:03;12.33;;;11.03;;
261;SDS011;114;48.260;10.988;2023-05-16T10:53:45;12.93;;;10.97;;
261;SDS011;114;48.260;10.988;2023-05-16T10:56:11;13.93;;;10.83;;
261;SDS011;114;48.260;10.988;2023-05-16T11:19:33;10.97;;;9.93;;
261;SDS011;114;48.260;10.988;2023-05-16T11:22:10;11.47;;;10.27;;
261;SDS011;114;48.260;10.988;2023-05-16T11:27:28;10.90;;;9.93;;
261;SDS011;114;48.260;10.988;2023-05-16T11:32:32;20.90;;;10.37;;
261;SDS011;114;48.260;10.988;2023-05-16T11:34:59;10.53;;;9.27;;
261;SDS011;114;48.260;10.988;2023-05-16T11:37:26;11.37;;;10.23;;
261;SDS011;114;48.260;10.988;2023-05-16T11:39:52;15.67;;;11.37;;
261;SDS011;114;48.260;10.988;2023-05-16T11:42:18;11.93;;;10.87;;
261;SDS011;114;48.260;10.988;2023-05-16T11:44:44;11.50;;;10.40;;
261;SDS011;114;48.260;10.988;2023-05-16T11:47:10;11.63;;;9.83;;
261;SDS011;114;48.260;10.988;2023-05-16T11:49:36;10.20;;;9.47;;
261;SDS011;114;48.260;10.988;2023-05-16T11:52:02;10.97;;;9.97;;
261;SDS011;114;48.260;10.988;2023-05-16T11:54:29;12.27;;;10.60;;
261;SDS011;114;48.260;10.988;2023-05-16T11:56:55;7.57;;;6.87;;
261;SDS011;114;48.260;10.988;2023-05-16T11:59:21;12.13;;;6.83;;
261;SDS011;114;48.260;10.988;2023-05-16T12:01:47;7.83;;;7.00;;
261;SDS011;114;48.260;10.988;2023-05-16T12:04:15;9.57;;;6.67;;
261;SDS011;114;48.260;10.988;2023-05-16T12:06:42;8.40;;;7.13;;
261;SDS011;114;48.260;10.988;2023-05-16T12:09:12;6.83;;;5.67;;
261;SDS011;114;48.260;10.988;2023-05-16T12:11:39;6.13;;;5.50;;
261;SDS011;114;48.260;10.988;2023-05-16T12:14:07;6.80;;;6.20;;
261;SDS011;114;48.260;10.988;2023-05-16T12:16:34;11.33;;;6.10;;
261;SDS011;114;48.260;10.988;2023-05-16T12:19:02;6.93;;;6.07;;
261;SDS011;114;48.260;10.988;2023-05-16T12:21:31;7.63;;;6.87;;
261;SDS011;114;48.260;10.988;2023-05-16T12:23:57;9.77;;;7.40;;
261;SDS011;114;48.260;10.988;2023-05-16T12:26:26;7.40;;;6.90;;
261;SDS011;114;48.260;10.988;2023-05-16T12:28:59;12.27;;;7.10;;
261;SDS011;114;48.260;10.988;2023-05-16T12:31:27;7.93;;;7.30;;
261;SDS011;114;48.260;10.988;2023-05-16T12:33:57;8.57;;;7.70;;
261;SDS011;114;48.260;10.988;2023-05-16T12:36:23;10.93;;;6.67;;
261;SDS011;114;48.260;10.988;2023-05-16T12:38:51;8.53;;;7.80;;
261;SDS011;114;48.260;10.988;2023-05-16T12:41:20;7.77;;;7.07;;
261;SDS011;114;48.260;10.988;2023-05-16T12:43:47;8.83;;;7.30;;
261;SDS011;114;48.260;10.988;2023-05-16T12:46:13;8.17;;;6.50;;
261;SDS011;114;48.260;10.988;2023-05-16T12:48:39;5.97;;;5.57;;
261;SDS011;114;48.260;10.988;2023-05-16T12:51:12;7.03;;;6.43;;
261;SDS011;114;48.260;10.988;2023-05-16T12:53:45;8.17;;;7.07;;
261;SDS011;114;48.260;10.988;2023-05-16T12:56:12;9.00;;;7.57;;
261;SDS011;114;48.260;10.988;2023-05-16T12:58:39;9.27;;;8.00;;
261;SDS011;114;48.260;10.988;2023-05-16T13:01:06;14.50;;;8.83;;
261;SDS011;114;48.260;10.988;2023-05-16T13:03:32;16.27;;;10.70;;
261;SDS011;114;48.260;10.988;2023-05-16T13:05:59;14.73;;;12.10;;
261;SDS011;114;48.260;10.988;2023-05-16T13:08:25;12.07;;;10.87;;
261;SDS011;114;48.260;10.988;2023-05-16T13:10:52;16.87;;;12.47;;
261;SDS011;114;48.260;10.988;2023-05-16T13:13:18;20.33;;;12.17;;
261;SDS011;114;48.260;10.988;2023-05-16T13:15:44;15.77;;;13.27;;
261;SDS011;114;48.260;10.988;2023-05-16T13:18:11;14.33;;;12.93;;
261;SDS011;114;48.260;10.988;2023-05-16T13:20:36;16.50;;;13.60;;
261;SDS011;114;48.260;10.988;2023-05-16T13:23:02;24.40;;;14.40;;
261;SDS011;114;48.260;10.988;2023-05-16T13:25:29;13.33;;;10.40;;
261;SDS011;114;48.260;10.988;2023-05-16T13:27:55;13.27;;;11.97;;
261;SDS011;114;48.260;10.988;2023-05-16T13:30:21;11.77;;;10.60;;
261;SDS011;114;48.260;10.988;2023-05-16T13:32:47;10.10;;;9.20;;
261;SDS011;114;48.260;10.988;2023-05-16T13:35:12;14.07;;;9.83;;
261;SDS011;114;48.260;10.988;2023-05-16T13:37:38;9.37;;;8.47;;
261;SDS011;114;48.260;10.988;2023-05-16T13:40:05;12.03;;;8.93;;
261;SDS011;114;48.260;10.988;2023-05-16T13:42:35;12.70;;;9.43;;
261;SDS011;114;48.260;10.988;2023-05-16T13:45:01;12.10;;;9.37;;
261;SDS011;114;48.260;10.988;2023-05-16T13:47:27;8.47;;;7.77;;
261;SDS011;114;48.260;10.988;2023-05-16T13:49:53;8.57;;;7.87;;
261;SDS011;114;48.260;10.988;2023-05-16T13:52:19;9.20;;;8.30;;
261;SDS011;114;48.260;10.988;2023-05-16T13:54:45;15.90;;;8.13;;
261;SDS011;114;48.260;10.988;2023-05-16T13:57:11;9.07;;;8.37;;
261;SDS011;114;48.260;10.988;2023-05-16T13:59:37;10.10;;;9.30;;
261;SDS011;114;48.260;10.988;2023-05-16T14:02:03;10.60;;;9.70;;
261;SDS011;114;48.260;10.988;2023-05-16T14:04:29;20.80;;;10.23;;
261;SDS011;114;48.260;10.988;2023-05-16T14:06:55;11.80;;;10.10;;
261;SDS011;114;48.260;10.988;2023-05-16T14:09:21;12.63;;;11.53;;
261;SDS011;114;48.260;10.988;2023-05-16T14:11:46;14.73;;;10.13;;
261;SDS011;114;48.260;10.988;2023-05-16T14:14:12;14.10;;;12.57;;
261;SDS011;114;48.260;10.988;2023-05-16T14:16:38;18.23;;;12.17;;
261;SDS011;114;48.260;10.988;2023-05-16T14:19:08;14.17;;;12.70;;
261;SDS011;114;48.260;10.988;2023-05-16T14:21:34;20.23;;;15.30;;
261;SDS011;114;48.260;10.988;2023-05-16T14:24:00;17.20;;;15.50;;
261;SDS011;114;48.260;10.988;2023-05-16T14:26:26;16.73;;;15.23;;
261;SDS011;114;48.260;10.988;2023-05-16T14:28:51;19.03;;;17.13;;
261;SDS011;114;48.260;10.988;2023-05-16T14:31:17;16.47;;;14.93;;
261;SDS011;114;48.260;10.988;2023-05-16T14:33:43;22.13;;;17.33;;
261;SDS011;114;48.260;10.988;2023-05-16T14:36:08;32.13;;;19.00;;
261;SDS011;114;48.260;10.988;2023-05-16T14:38:34;20.10;;;18.00;;
261;SDS011;114;48.260;10.988;2023-05-16T14:41:00;24.23;;;19.57;;
261;SDS011;114;48.260;10.988;2023-05-16T14:43:26;16.37;;;12.60;;
261;SDS011;114;48.260;10.988;2023-05-16T14:45:52;13.80;;;12.37;;
261;SDS011;114;48.260;10.988;2023-05-16T14:48:18;13.33;;;12.10;;
261;SDS011;114;48.260;10.988;2023-05-16T14:50:43;14.43;;;13.20;;
261;SDS011;114;48.260;10.988;2023-05-16T14:53:10;14.93;;;13.10;;
261;SDS011;114;48.260;10.988;2023-05-16T14:55:35;17.97;;;12.43;;
261;SDS011;114;48.260;10.988;2023-05-16T14:58:01;12.67;;;11.57;;
261;SDS011;114;48.260;10.988;2023-05-16T15:00:27;11.20;;;10.20;;
261;SDS011;114;48.260;10.988;2023-05-16T15:02:53;10.93;;;10.10;;
261;SDS011;114;48.260;10.988;2023-05-16T15:05:19;12.70;;;10.70;;
261;SDS011;114;48.260;10.988;2023-05-16T15:07:45;11.80;;;10.67;;
261;SDS011;114;48.260;10.988;2023-05-16T15:10:10;15.27;;;11.77;;
261;SDS011;114;48.260;10.988;2023-05-16T15:12:36;12.67;;;11.47;;
261;SDS011;114;48.260;10.988;2023-05-16T15:15:05;12.07;;;10.77;;
261;SDS011;114;48.260;10.988;2023-05-16T15:17:32;11.13;;;10.20;;
261;SDS011;114;48.260;10.988;2023-05-16T15:19:58;15.73;;;11.30;;
261;SDS011;114;48.260;10.988;2023-05-16T15:22:23;11.23;;;10.23;;
261;SDS011;114;48.260;10.988;2023-05-16T15:24:49;10.50;;;9.60;;
261;SDS011;114;48.260;10.988;2023-05-16T15:27:15;15.70;;;9.77;;
261;SDS011;114;48.260;10.988;2023-05-16T15:29:40;12.33;;;10.50;;
261;SDS011;114;48.260;10.988;2023-05-16T15:32:06;11.00;;;10.00;;
261;SDS011;114;48.260;10.988;2023-05-16T15:34:33;11.00;;;9.93;;
261;SDS011;114;48.260;10.988;2023-05-16T15:36:59;11.03;;;10.10;;
261;SDS011;114;48.260;10.988;2023-05-16T15:39:25;15.53;;;13.10;;
261;SDS011;114;48.260;10.988;2023-05-16T15:41:52;15.53;;;14.03;;
261;SDS011;114;48.260;10.988;2023-05-16T15:44:17;13.60;;;12.30;;
261;SDS011;114;48.260;10.988;2023-05-16T15:46:43;13.67;;;11.83;;
261;SDS011;114;48.260;10.988;2023-05-16T15:49:09;13.00;;;11.63;;